sensor_id;sensor_type;location;lat;lon;timestamp;P1;durP1;ratioP1;P2;durP2;ratioP2
1128;SDS011;553;51.038;7.216;2023-04-25T00:01:45;14.33;;;6.50;;
1128;SDS011;553;51.038;7.216;2023-04-25T00:04:13;13.43;;;6.60;;
1128;SDS011;553;51.038;7.216;2023-04-25T00:06:40;15.50;;;6.23;;
1128;SDS011;553;51.038;7.216;2023-04-25T00:09:06;16.17;;;7.17;;
1128;SDS011;553;51.038;7.216;2023-04-25T00:11:35;16.10;;;6.40;;
1128;SDS011;553;51.038;7.216;2023-04-25T00:14:03;17.90;;;6.40;;
1128;SDS011;553;51.038;7.216;2023-04-25T00:16:30;14.67;;;6.80;;
1128;SDS011;553;51.038;7.216;2023-04-25T00:19:00;14.50;;;6.60;;
1128;SDS011;553;51.038;7.216;2023-04-25T00:21:28;11.70;;;6.30;;
1128;SDS011;553;51.038;7.216;2023-04-25T00:23:57;13.80;;;6.50;;
1128;SDS011;553;51.038;7.216;2023-04-25T00:26:24;14.43;;;6.67;;
1128;SDS011;553;51.038;7.216;2023-04-25T00:28:51;19.10;;;7.47;;
1128;SDS011;553;51.038;7.216;2023-04-25T00:31:18;18.83;;;7.50;;
1128;SDS011;553;51.038;7.216;2023-04-25T00:33:45;24.43;;;7.60;;
1128;SDS011;553;51.038;7.216;2023-04-25T00:36:12;19.27;;;8.10;;
1128;SDS011;553;51.038;7.216;2023-04-25T00:38:39;21.90;;;8.23;;
1128;SDS011;553;51.038;7.216;2023-04-25T00:41:06;18.80;;;8.20;;
1128;SDS011;553;51.038;7.216;2023-04-25T00:43:34;19.00;;;8.00;;
1128;SDS011;553;51.038;7.216;2023-04-25T00:46:03;22.87;;;7.63;;
1128;SDS011;553;51.038;7.216;2023-04-25T00:48:29;14.33;;;7.37;;
1128;SDS011;553;51.038;7.216;2023-04-25T00:50:57;15.00;;;6.53;;
1128;SDS011;553;51.038;7.216;2023-04-25T00:53:26;12.80;;;6.63;;
1128;SDS011;553;51.038;7.216;2023-04-25T00:55:54;23.73;;;7.77;;
1128;SDS011;553;51.038;7.216;2023-04-25T00:58:21;14.73;;;6.67;;
1128;SDS011;553;51.038;7.216;2023-04-25T01:00:49;16.87;;;7.00;;
1128;SDS011;553;51.038;7.216;2023-04-25T01:03:18;19.87;;;7.87;;
1128;SDS011;553;51.038;7.216;2023-04-25T01:05:49;18.97;;;6.80;;
1128;SDS011;553;51.038;7.216;2023-04-25T01:08:17;13.37;;;7.10;;
1128;SDS011;553;51.038;7.216;2023-04-25T01:10:43;16.23;;;6.60;;
1128;SDS011;553;51.038;7.216;2023-04-25T01:13:10;15.47;;;7.50;;
1128;SDS011;553;51.038;7.216;2023-04-25T01:15:37;12.33;;;6.97;;
1128;SDS011;553;51.038;7.216;2023-04-25T01:18:05;12.83;;;6.00;;
1128;SDS011;553;51.038;7.216;2023-04-25T01:20:32;18.73;;;8.23;;
1128;SDS011;553;51.038;7.216;2023-04-25T01:23:00;18.27;;;6.70;;
1128;SDS011;553;51.038;7.216;2023-04-25T01:25:32;16.23;;;6.87;;
1128;SDS011;553;51.038;7.216;2023-04-25T01:28:00;14.07;;;6.30;;
1128;SDS011;553;51.038;7.216;2023-04-25T01:30:27;13.33;;;6.10;;
1128;SDS011;553;51.038;7.216;2023-04-25T01:32:55;15.13;;;5.50;;
1128;SDS011;553;51.038;7.216;2023-04-25T01:35:23;14.27;;;6.33;;
1128;SDS011;553;51.038;7.216;2023-04-25T01:37:52;15.87;;;6.97;;
1128;SDS011;553;51.038;7.216;2023-04-25T01:40:20;13.90;;;5.67;;
1128;SDS011;553;51.038;7.216;2023-04-25T01:42:49;12.70;;;5.27;;
1128;SDS011;553;51.038;7.216;2023-04-25T01:45:16;14.53;;;6.40;;
1128;SDS011;553;51.038;7.216;2023-04-25T01:47:43;15.47;;;6.30;;
1128;SDS011;553;51.038;7.216;2023-04-25T01:50:15;13.53;;;5.80;;
1128;SDS011;553;51.038;7.216;2023-04-25T01:52:44;12.60;;;6.70;;
1128;SDS011;553;51.038;7.216;2023-04-25T01:55:13;17.50;;;6.37;;
1128;SDS011;553;51.038;7.216;2023-04-25T01:57:50;14.47;;;6.53;;
1128;SDS011;553;51.038;7.216;2023-04-25T02:00:19;12.07;;;6.27;;
1128;SDS011;553;51.038;7.216;2023-04-25T02:02:47;10.40;;;5.47;;
1128;SDS011;553;51.038;7.216;2023-04-25T02:05:28;10.97;;;5.73;;
1128;SDS011;553;51.038;7.216;2023-04-25T02:07:59;16.13;;;5.17;;
1128;SDS011;553;51.038;7.216;2023-04-25T02:10:26;14.07;;;6.03;;
1128;SDS011;553;51.038;7.216;2023-04-25T02:13:13;19.63;;;5.63;;
1128;SDS011;553;51.038;7.216;2023-04-25T02:15:57;12.80;;;5.13;;
1128;SDS011;553;51.038;7.216;2023-04-25T02:18:24;12.53;;;5.63;;
1128;SDS011;553;51.038;7.216;2023-04-25T02:20:52;14.60;;;5.93;;
1128;SDS011;553;51.038;7.216;2023-04-25T02:23:19;15.60;;;5.40;;
1128;SDS011;553;51.038;7.216;2023-04-25T02:25:46;15.27;;;6.50;;
1128;SDS011;553;51.038;7.216;2023-04-25T02:28:13;12.10;;;5.80;;
1128;SDS011;553;51.038;7.216;2023-04-25T02:30:39;12.47;;;6.10;;
1128;SDS011;553;51.038;7.216;2023-04-25T02:33:06;11.80;;;5.00;;
1128;SDS011;553;51.038;7.216;2023-04-25T02:35:34;12.60;;;5.73;;
1128;SDS011;553;51.038;7.216;2023-04-25T02:38:01;17.77;;;5.93;;
1128;SDS011;553;51.038;7.216;2023-04-25T02:40:28;14.90;;;5.80;;
1128;SDS011;553;51.038;7.216;2023-04-25T02:42:55;13.40;;;6.33;;
1128;SDS011;553;51.038;7.216;2023-04-25T02:45:25;18.50;;;7.90;;
1128;SDS011;553;51.038;7.216;2023-04-25T02:47:52;11.83;;;5.30;;
1128;SDS011;553;51.038;7.216;2023-04-25T02:50:19;15.37;;;6.40;;
1128;SDS011;553;51.038;7.216;2023-04-25T02:52:45;14.37;;;6.00;;
1128;SDS011;553;51.038;7.216;2023-04-25T02:55:23;14.63;;;6.60;;
1128;SDS011;553;51.038;7.216;2023-04-25T02:57:53;18.27;;;5.97;;
1128;SDS011;553;51.038;7.216;2023-04-25T03:00:33;18.83;;;5.17;;
1128;SDS011;553;51.038;7.216;2023-04-25T03:03:00;12.20;;;6.20;;
1128;SDS011;553;51.038;7.216;2023-04-25T03:05:27;10.60;;;5.40;;
1128;SDS011;553;51.038;7.216;2023-04-25T03:07:54;17.07;;;6.07;;
1128;SDS011;553;51.038;7.216;2023-04-25T03:10:21;15.00;;;6.27;;
1128;SDS011;553;51.038;7.216;2023-04-25T03:12:48;12.53;;;6.03;;
1128;SDS011;553;51.038;7.216;2023-04-25T03:15:14;13.13;;;6.40;;
1128;SDS011;553;51.038;7.216;2023-04-25T03:17:42;14.90;;;6.60;;
1128;SDS011;553;51.038;7.216;2023-04-25T03:20:09;16.60;;;6.40;;
1128;SDS011;553;51.038;7.216;2023-04-25T03:22:37;14.10;;;6.60;;
1128;SDS011;553;51.038;7.216;2023-04-25T03:25:03;15.63;;;6.43;;
1128;SDS011;553;51.038;7.216;2023-04-25T03:27:31;13.50;;;6.77;;
1128;SDS011;553;51.038;7.216;2023-04-25T03:29:57;18.47;;;7.20;;
1128;SDS011;553;51.038;7.216;2023-04-25T03:32:24;14.57;;;7.27;;
1128;SDS011;553;51.038;7.216;2023-04-25T03:34:51;21.77;;;9.30;;
1128;SDS011;553;51.038;7.216;2023-04-25T03:37:17;15.47;;;6.10;;
1128;SDS011;553;51.038;7.216;2023-04-25T03:39:44;12.67;;;6.63;;
1128;SDS011;553;51.038;7.216;2023-04-25T03:42:11;12.80;;;6.33;;
1128;SDS011;553;51.038;7.216;2023-04-25T03:44:38;15.87;;;6.90;;
1128;SDS011;553;51.038;7.216;2023-04-25T03:47:05;16.13;;;6.73;;
1128;SDS011;553;51.038;7.216;2023-04-25T03:49:33;17.67;;;7.00;;
1128;SDS011;553;51.038;7.216;2023-04-25T03:52:02;15.47;;;6.87;;
1128;SDS011;553;51.038;7.216;2023-04-25T03:54:35;13.40;;;6.60;;
1128;SDS011;553;51.038;7.216;2023-04-25T03:57:12;16.53;;;7.40;;
1128;SDS011;553;51.038;7.216;2023-04-25T03:59:39;13.83;;;6.67;;
1128;SDS011;553;51.038;7.216;2023-04-25T04:02:08;14.10;;;7.00;;
1128;SDS011;553;51.038;7.216;2023-04-25T04:04:35;21.57;;;7.77;;
1128;SDS011;553;51.038;7.216;2023-04-25T04:07:03;14.97;;;6.63;;
1128;SDS011;553;51.038;7.216;2023-04-25T04:09:33;10.83;;;6.00;;
1128;SDS011;553;51.038;7.216;2023-04-25T04:12:04;17.37;;;7.63;;
1128;SDS011;553;51.038;7.216;2023-04-25T04:14:32;16.43;;;6.87;;
1128;SDS011;553;51.038;7.216;2023-04-25T04:16:59;14.43;;;6.30;;
1128;SDS011;553;51.038;7.216;2023-04-25T04:19:27;14.70;;;7.40;;
1128;SDS011;553;51.038;7.216;2023-04-25T04:22:13;16.37;;;7.77;;
1128;SDS011;553;51.038;7.216;2023-04-25T04:24:40;17.17;;;7.73;;
1128;SDS011;553;51.038;7.216;2023-04-25T04:27:10;14.87;;;6.33;;
1128;SDS011;553;51.038;7.216;2023-04-25T04:30:11;13.30;;;6.80;;
1128;SDS011;553;51.038;7.216;2023-04-25T04:32:51;16.60;;;6.53;;
1128;SDS011;553;51.038;7.216;2023-04-25T04:35:20;12.63;;;6.83;;
1128;SDS011;553;51.038;7.216;2023-04-25T04:37:47;15.67;;;6.60;;
1128;SDS011;553;51.038;7.216;2023-04-25T04:40:15;16.17;;;6.80;;
1128;SDS011;553;51.038;7.216;2023-04-25T04:43:09;14.03;;;6.77;;
1128;SDS011;553;51.038;7.216;2023-04-25T04:45:42;15.57;;;7.03;;
1128;SDS011;553;51.038;7.216;2023-04-25T04:48:29;15.20;;;8.13;;
1128;SDS011;553;51.038;7.216;2023-04-25T04:51:19;19.77;;;8.37;;
1128;SDS011;553;51.038;7.216;2023-04-25T04:54:04;16.10;;;7.63;;
1128;SDS011;553;51.038;7.216;2023-04-25T04:56:58;17.67;;;8.60;;
1128;SDS011;553;51.038;7.216;2023-04-25T04:59:24;16.53;;;8.37;;
1128;SDS011;553;51.038;7.216;2023-04-25T05:02:10;22.03;;;9.60;;
1128;SDS011;553;51.038;7.216;2023-04-25T05:04:55;20.53;;;10.17;;
1128;SDS011;553;51.038;7.216;2023-04-25T05:07:44;18.63;;;9.47;;
1128;SDS011;553;51.038;7.216;2023-04-25T05:10:40;20.97;;;9.60;;
1128;SDS011;553;51.038;7.216;2023-04-25T05:13:18;26.07;;;12.00;;
1128;SDS011;553;51.038;7.216;2023-04-25T05:16:15;22.43;;;10.40;;
1128;SDS011;553;51.038;7.216;2023-04-25T05:19:04;24.20;;;10.90;;
1128;SDS011;553;51.038;7.216;2023-04-25T05:21:49;31.00;;;11.63;;
1128;SDS011;553;51.038;7.216;2023-04-25T05:24:16;32.53;;;12.80;;
1128;SDS011;553;51.038;7.216;2023-04-25T05:27:01;24.57;;;12.33;;
1128;SDS011;553;51.038;7.216;2023-04-25T05:29:57;29.80;;;12.63;;
1128;SDS011;553;51.038;7.216;2023-04-25T05:32:28;25.43;;;12.37;;
1128;SDS011;553;51.038;7.216;2023-04-25T05:34:55;31.60;;;17.23;;
1128;SDS011;553;51.038;7.216;2023-04-25T05:37:29;33.33;;;13.10;;
1128;SDS011;553;51.038;7.216;2023-04-25T05:40:05;30.03;;;12.70;;
1128;SDS011;553;51.038;7.216;2023-04-25T05:42:35;25.10;;;13.30;;
1128;SDS011;553;51.038;7.216;2023-04-25T05:45:19;22.17;;;13.00;;
1128;SDS011;553;51.038;7.216;2023-04-25T05:48:06;24.13;;;12.47;;
1128;SDS011;553;51.038;7.216;2023-04-25T05:50:57;42.03;;;14.50;;
1128;SDS011;553;51.038;7.216;2023-04-25T05:53:46;21.70;;;11.67;;
1128;SDS011;553;51.038;7.216;2023-04-25T05:56:14;23.87;;;11.50;;
1128;SDS011;553;51.038;7.216;2023-04-25T05:58:40;25.17;;;11.77;;
1128;SDS011;553;51.038;7.216;2023-04-25T06:01:09;24.07;;;11.93;;
1128;SDS011;553;51.038;7.216;2023-04-25T06:03:36;32.20;;;12.57;;
1128;SDS011;553;51.038;7.216;2023-04-25T06:06:04;19.70;;;10.83;;
1128;SDS011;553;51.038;7.216;2023-04-25T06:08:32;27.47;;;12.93;;
1128;SDS011;553;51.038;7.216;2023-04-25T06:10:58;22.83;;;12.37;;
1128;SDS011;553;51.038;7.216;2023-04-25T06:13:25;23.00;;;10.50;;
1128;SDS011;553;51.038;7.216;2023-04-25T06:15:54;27.53;;;8.87;;
1128;SDS011;553;51.038;7.216;2023-04-25T06:18:21;21.40;;;9.43;;
1128;SDS011;553;51.038;7.216;2023-04-25T06:20:48;22.63;;;8.90;;
1128;SDS011;553;51.038;7.216;2023-04-25T06:23:16;30.00;;;10.00;;
1128;SDS011;553;51.038;7.216;2023-04-25T06:26:01;18.47;;;7.70;;
1128;SDS011;553;51.038;7.216;2023-04-25T06:28:29;22.07;;;8.87;;
1128;SDS011;553;51.038;7.216;2023-04-25T06:30:56;20.70;;;8.30;;
1128;SDS011;553;51.038;7.216;2023-04-25T06:33:23;24.47;;;8.33;;
1128;SDS011;553;51.038;7.216;2023-04-25T06:35:51;23.67;;;8.70;;
1128;SDS011;553;51.038;7.216;2023-04-25T06:38:22;19.33;;;7.57;;
1128;SDS011;553;51.038;7.216;2023-04-25T06:40:50;21.47;;;8.30;;
1128;SDS011;553;51.038;7.216;2023-04-25T06:43:18;21.60;;;8.67;;
1128;SDS011;553;51.038;7.216;2023-04-25T06:46:03;23.00;;;8.60;;
1128;SDS011;553;51.038;7.216;2023-04-25T06:48:32;15.07;;;7.93;;
1128;SDS011;553;51.038;7.216;2023-04-25T06:50:58;14.47;;;6.70;;
1128;SDS011;553;51.038;7.216;2023-04-25T06:53:25;12.93;;;6.20;;
1128;SDS011;553;51.038;7.216;2023-04-25T06:55:58;20.40;;;7.37;;
1128;SDS011;553;51.038;7.216;2023-04-25T06:58:34;15.30;;;7.07;;
1128;SDS011;553;51.038;7.216;2023-04-25T07:01:08;15.73;;;6.63;;
1128;SDS011;553;51.038;7.216;2023-04-25T07:03:35;15.20;;;6.27;;
1128;SDS011;553;51.038;7.216;2023-04-25T07:06:08;24.40;;;6.53;;
1128;SDS011;553;51.038;7.216;2023-04-25T07:08:35;14.50;;;5.30;;
1128;SDS011;553;51.038;7.216;2023-04-25T07:11:01;14.47;;;4.80;;
1128;SDS011;553;51.038;7.216;2023-04-25T07:13:28;18.10;;;5.40;;
1128;SDS011;553;51.038;7.216;2023-04-25T07:15:56;19.63;;;6.13;;
1128;SDS011;553;51.038;7.216;2023-04-25T07:18:23;12.53;;;5.50;;
1128;SDS011;553;51.038;7.216;2023-04-25T07:20:50;13.50;;;6.00;;
1128;SDS011;553;51.038;7.216;2023-04-25T07:23:17;14.07;;;5.20;;
1128;SDS011;553;51.038;7.216;2023-04-25T07:25:45;13.83;;;4.37;;
1128;SDS011;553;51.038;7.216;2023-04-25T07:28:14;14.40;;;4.80;;
1128;SDS011;553;51.038;7.216;2023-04-25T07:30:46;10.10;;;4.00;;
1128;SDS011;553;51.038;7.216;2023-04-25T07:33:12;14.13;;;4.23;;
1128;SDS011;553;51.038;7.216;2023-04-25T07:35:39;12.30;;;4.90;;
1128;SDS011;553;51.038;7.216;2023-04-25T07:38:06;10.53;;;4.40;;
1128;SDS011;553;51.038;7.216;2023-04-25T07:40:34;10.20;;;4.60;;
1128;SDS011;553;51.038;7.216;2023-04-25T07:43:05;16.83;;;5.43;;
1128;SDS011;553;51.038;7.216;2023-04-25T07:45:45;17.07;;;5.37;;
1128;SDS011;553;51.038;7.216;2023-04-25T07:48:16;5.60;;;4.20;;
1128;SDS011;553;51.038;7.216;2023-04-25T07:50:45;14.07;;;4.03;;
1128;SDS011;553;51.038;7.216;2023-04-25T07:53:13;14.70;;;5.27;;
1128;SDS011;553;51.038;7.216;2023-04-25T07:55:48;13.33;;;4.20;;
1128;SDS011;553;51.038;7.216;2023-04-25T07:58:16;10.23;;;3.63;;
1128;SDS011;553;51.038;7.216;2023-04-25T08:00:50;18.37;;;3.10;;
1128;SDS011;553;51.038;7.216;2023-04-25T08:03:43;8.90;;;2.80;;
1128;SDS011;553;51.038;7.216;2023-04-25T08:06:18;5.50;;;2.77;;
1128;SDS011;553;51.038;7.216;2023-04-25T08:09:02;9.30;;;3.33;;
1128;SDS011;553;51.038;7.216;2023-04-25T08:11:36;11.30;;;3.67;;
1128;SDS011;553;51.038;7.216;2023-04-25T08:14:03;12.33;;;3.67;;
1128;SDS011;553;51.038;7.216;2023-04-25T08:16:32;8.57;;;3.10;;
1128;SDS011;553;51.038;7.216;2023-04-25T08:19:00;10.53;;;3.47;;
1128;SDS011;553;51.038;7.216;2023-04-25T08:21:27;10.23;;;3.70;;
1128;SDS011;553;51.038;7.216;2023-04-25T08:23:55;9.37;;;3.33;;
1128;SDS011;553;51.038;7.216;2023-04-25T08:26:30;12.53;;;3.93;;
1128;SDS011;553;51.038;7.216;2023-04-25T08:28:58;8.73;;;2.97;;
1128;SDS011;553;51.038;7.216;2023-04-25T08:31:25;9.17;;;2.57;;
1128;SDS011;553;51.038;7.216;2023-04-25T08:33:58;8.00;;;3.30;;
1128;SDS011;553;51.038;7.216;2023-04-25T08:36:34;9.13;;;3.57;;
1128;SDS011;553;51.038;7.216;2023-04-25T08:39:17;6.80;;;3.60;;
1128;SDS011;553;51.038;7.216;2023-04-25T08:42:04;8.80;;;3.53;;
1128;SDS011;553;51.038;7.216;2023-04-25T08:44:36;13.07;;;4.77;;
1128;SDS011;553;51.038;7.216;2023-04-25T08:47:04;8.67;;;4.03;;
1128;SDS011;553;51.038;7.216;2023-04-25T08:49:38;8.63;;;4.10;;
1128;SDS011;553;51.038;7.216;2023-04-25T08:52:10;6.10;;;3.70;;
1128;SDS011;553;51.038;7.216;2023-04-25T08:54:41;13.23;;;3.40;;
1128;SDS011;553;51.038;7.216;2023-04-25T08:57:10;9.10;;;3.90;;
1128;SDS011;553;51.038;7.216;2023-04-25T08:59:39;7.53;;;4.20;;
1128;SDS011;553;51.038;7.216;2023-04-25T09:02:09;10.77;;;4.17;;
1128;SDS011;553;51.038;7.216;2023-04-25T09:04:42;13.43;;;5.20;;
1128;SDS011;553;51.038;7.216;2023-04-25T09:07:10;7.93;;;2.73;;
1128;SDS011;553;51.038;7.216;2023-04-25T09:09:37;8.13;;;3.07;;
1128;SDS011;553;51.038;7.216;2023-04-25T09:12:04;5.77;;;2.73;;
1128;SDS011;553;51.038;7.216;2023-04-25T09:14:31;10.67;;;2.67;;
1128;SDS011;553;51.038;7.216;2023-04-25T09:17:02;10.97;;;4.30;;
1128;SDS011;553;51.038;7.216;2023-04-25T09:19:46;7.63;;;2.70;;
1128;SDS011;553;51.038;7.216;2023-04-25T09:22:26;9.30;;;2.90;;
1128;SDS011;553;51.038;7.216;2023-04-25T09:24:53;6.17;;;2.97;;
1128;SDS011;553;51.038;7.216;2023-04-25T09:27:23;8.20;;;3.13;;
1128;SDS011;553;51.038;7.216;2023-04-25T09:30:01;12.37;;;3.43;;
1128;SDS011;553;51.038;7.216;2023-04-25T09:32:46;8.63;;;2.63;;
1128;SDS011;553;51.038;7.216;2023-04-25T09:35:23;8.00;;;3.33;;
1128;SDS011;553;51.038;7.216;2023-04-25T09:37:52;6.13;;;3.20;;
1128;SDS011;553;51.038;7.216;2023-04-25T09:40:39;7.50;;;3.30;;
1128;SDS011;553;51.038;7.216;2023-04-25T09:43:20;10.03;;;2.77;;
1128;SDS011;553;51.038;7.216;2023-04-25T09:45:49;9.10;;;3.27;;
1128;SDS011;553;51.038;7.216;2023-04-25T09:48:18;11.50;;;3.10;;
1128;SDS011;553;51.038;7.216;2023-04-25T09:51:04;12.20;;;3.23;;
1128;SDS011;553;51.038;7.216;2023-04-25T09:53:40;8.57;;;3.20;;
1128;SDS011;553;51.038;7.216;2023-04-25T09:56:25;10.10;;;3.83;;
1128;SDS011;553;51.038;7.216;2023-04-25T09:58:55;7.43;;;3.00;;
1128;SDS011;553;51.038;7.216;2023-04-25T10:01:22;7.03;;;3.00;;
1128;SDS011;553;51.038;7.216;2023-04-25T10:04:02;6.93;;;3.30;;
1128;SDS011;553;51.038;7.216;2023-04-25T10:06:44;10.10;;;3.93;;
1128;SDS011;553;51.038;7.216;2023-04-25T10:09:16;8.30;;;3.40;;
1128;SDS011;553;51.038;7.216;2023-04-25T10:11:51;8.53;;;3.50;;
1128;SDS011;553;51.038;7.216;2023-04-25T10:14:19;6.70;;;3.40;;
1128;SDS011;553;51.038;7.216;2023-04-25T10:16:45;9.00;;;3.70;;
1128;SDS011;553;51.038;7.216;2023-04-25T10:19:13;11.33;;;3.47;;
1128;SDS011;553;51.038;7.216;2023-04-25T10:24:37;8.90;;;3.27;;
1128;SDS011;553;51.038;7.216;2023-04-25T10:27:05;5.40;;;2.70;;
1128;SDS011;553;51.038;7.216;2023-04-25T10:29:32;8.07;;;2.73;;
1128;SDS011;553;51.038;7.216;2023-04-25T10:31:59;5.80;;;3.00;;
1128;SDS011;553;51.038;7.216;2023-04-25T10:34:45;6.10;;;2.70;;
1128;SDS011;553;51.038;7.216;2023-04-25T10:37:14;7.60;;;2.83;;
1128;SDS011;553;51.038;7.216;2023-04-25T10:39:41;12.07;;;4.40;;
1128;SDS011;553;51.038;7.216;2023-04-25T10:42:08;7.17;;;3.60;;
1128;SDS011;553;51.038;7.216;2023-04-25T10:44:37;5.30;;;3.13;;
1128;SDS011;553;51.038;7.216;2023-04-25T10:47:06;6.80;;;2.90;;
1128;SDS011;553;51.038;7.216;2023-04-25T10:49:34;11.90;;;4.10;;
1128;SDS011;553;51.038;7.216;2023-04-25T11:02:48;4.23;;;2.63;;
1128;SDS011;553;51.038;7.216;2023-04-25T11:07:53;6.73;;;2.67;;
1128;SDS011;553;51.038;7.216;2023-04-25T11:10:32;10.13;;;2.40;;
1128;SDS011;553;51.038;7.216;2023-04-25T11:13:03;5.07;;;2.23;;
1128;SDS011;553;51.038;7.216;2023-04-25T11:15:31;11.50;;;2.93;;
1128;SDS011;553;51.038;7.216;2023-04-25T11:17:57;4.57;;;2.03;;
1128;SDS011;553;51.038;7.216;2023-04-25T11:20:25;6.37;;;1.90;;
1128;SDS011;553;51.038;7.216;2023-04-25T11:22:54;7.93;;;1.97;;
1128;SDS011;553;51.038;7.216;2023-04-25T11:25:25;10.00;;;2.50;;
1128;SDS011;553;51.038;7.216;2023-04-25T11:27:52;4.40;;;1.23;;
1128;SDS011;553;51.038;7.216;2023-04-25T11:30:22;6.80;;;2.63;;
1128;SDS011;553;51.038;7.216;2023-04-25T11:32:50;4.93;;;1.50;;
1128;SDS011;553;51.038;7.216;2023-04-25T11:35:19;3.70;;;1.20;;
1128;SDS011;553;51.038;7.216;2023-04-25T11:37:47;3.90;;;1.40;;
1128;SDS011;553;51.038;7.216;2023-04-25T11:40:13;3.23;;;1.50;;
1128;SDS011;553;51.038;7.216;2023-04-25T11:42:45;5.63;;;1.57;;
1128;SDS011;553;51.038;7.216;2023-04-25T11:45:13;6.03;;;1.80;;
1128;SDS011;553;51.038;7.216;2023-04-25T11:47:41;5.13;;;1.90;;
1128;SDS011;553;51.038;7.216;2023-04-25T11:50:08;4.67;;;1.20;;
1128;SDS011;553;51.038;7.216;2023-04-25T11:52:36;6.73;;;2.00;;
1128;SDS011;553;51.038;7.216;2023-04-25T11:55:04;4.67;;;1.90;;
1128;SDS011;553;51.038;7.216;2023-04-25T11:57:45;4.60;;;1.40;;
1128;SDS011;553;51.038;7.216;2023-04-25T12:00:18;4.00;;;1.70;;
1128;SDS011;553;51.038;7.216;2023-04-25T12:02:47;7.87;;;1.60;;
1128;SDS011;553;51.038;7.216;2023-04-25T12:05:19;7.47;;;2.33;;
1128;SDS011;553;51.038;7.216;2023-04-25T12:07:58;4.67;;;1.87;;
1128;SDS011;553;51.038;7.216;2023-04-25T12:10:37;5.77;;;1.93;;
1128;SDS011;553;51.038;7.216;2023-04-25T12:13:21;4.37;;;1.60;;
1128;SDS011;553;51.038;7.216;2023-04-25T12:15:49;2.93;;;1.33;;
1128;SDS011;553;51.038;7.216;2023-04-25T12:18:20;7.20;;;2.10;;
1128;SDS011;553;51.038;7.216;2023-04-25T12:20:48;3.73;;;1.60;;
1128;SDS011;553;51.038;7.216;2023-04-25T12:23:15;7.40;;;1.90;;
1128;SDS011;553;51.038;7.216;2023-04-25T12:25:43;2.77;;;1.40;;
1128;SDS011;553;51.038;7.216;2023-04-25T12:28:11;6.47;;;1.80;;
1128;SDS011;553;51.038;7.216;2023-04-25T12:30:52;2.90;;;1.20;;
1128;SDS011;553;51.038;7.216;2023-04-25T12:33:33;4.00;;;1.23;;
1128;SDS011;553;51.038;7.216;2023-04-25T12:36:01;3.33;;;0.80;;
1128;SDS011;553;51.038;7.216;2023-04-25T12:38:40;2.90;;;1.30;;
1128;SDS011;553;51.038;7.216;2023-04-25T12:41:08;2.80;;;1.30;;
1128;SDS011;553;51.038;7.216;2023-04-25T12:43:35;4.20;;;1.40;;
1128;SDS011;553;51.038;7.216;2023-04-25T12:46:02;8.10;;;2.10;;
1128;SDS011;553;51.038;7.216;2023-04-25T12:48:29;3.47;;;1.30;;
1128;SDS011;553;51.038;7.216;2023-04-25T12:50:57;5.23;;;3.07;;
1128;SDS011;553;51.038;7.216;2023-04-25T12:53:24;5.90;;;1.80;;
1128;SDS011;553;51.038;7.216;2023-04-25T12:55:51;7.40;;;3.47;;
1128;SDS011;553;51.038;7.216;2023-04-25T12:58:18;6.77;;;2.70;;
1128;SDS011;553;51.038;7.216;2023-04-25T13:00:45;8.37;;;3.00;;
1128;SDS011;553;51.038;7.216;2023-04-25T13:03:12;6.60;;;2.30;;
1128;SDS011;553;51.038;7.216;2023-04-25T13:05:39;7.73;;;2.53;;
1128;SDS011;553;51.038;7.216;2023-04-25T13:08:07;6.50;;;2.30;;
1128;SDS011;553;51.038;7.216;2023-04-25T13:10:34;8.50;;;5.30;;
1128;SDS011;553;51.038;7.216;2023-04-25T13:13:02;8.90;;;3.13;;
1128;SDS011;553;51.038;7.216;2023-04-25T13:15:28;9.03;;;2.50;;
1128;SDS011;553;51.038;7.216;2023-04-25T13:17:55;5.57;;;2.03;;
1128;SDS011;553;51.038;7.216;2023-04-25T13:20:22;8.87;;;2.33;;
1128;SDS011;553;51.038;7.216;2023-04-25T13:22:49;5.50;;;2.43;;
1128;SDS011;553;51.038;7.216;2023-04-25T13:25:16;6.30;;;2.60;;
1128;SDS011;553;51.038;7.216;2023-04-25T13:27:43;7.10;;;2.60;;
1128;SDS011;553;51.038;7.216;2023-04-25T13:30:11;9.30;;;2.17;;
1128;SDS011;553;51.038;7.216;2023-04-25T13:32:38;8.80;;;3.73;;
1128;SDS011;553;51.038;7.216;2023-04-25T13:35:06;9.27;;;3.60;;
1128;SDS011;553;51.038;7.216;2023-04-25T13:37:37;5.30;;;2.33;;
1128;SDS011;553;51.038;7.216;2023-04-25T13:40:05;7.90;;;2.40;;
1128;SDS011;553;51.038;7.216;2023-04-25T13:42:35;5.33;;;2.57;;
1128;SDS011;553;51.038;7.216;2023-04-25T13:45:03;4.83;;;2.00;;
1128;SDS011;553;51.038;7.216;2023-04-25T13:47:30;5.03;;;2.40;;
1128;SDS011;553;51.038;7.216;2023-04-25T13:49:57;5.23;;;2.90;;
1128;SDS011;553;51.038;7.216;2023-04-25T13:52:24;5.73;;;2.50;;
1128;SDS011;553;51.038;7.216;2023-04-25T13:54:51;4.40;;;3.30;;
1128;SDS011;553;51.038;7.216;2023-04-25T13:57:18;6.50;;;4.00;;
1128;SDS011;553;51.038;7.216;2023-04-25T13:59:45;5.77;;;2.43;;
1128;SDS011;553;51.038;7.216;2023-04-25T14:02:12;4.57;;;2.20;;
1128;SDS011;553;51.038;7.216;2023-04-25T14:04:40;4.20;;;2.23;;
1128;SDS011;553;51.038;7.216;2023-04-25T14:07:07;4.67;;;2.77;;
1128;SDS011;553;51.038;7.216;2023-04-25T14:09:34;7.83;;;2.80;;
1128;SDS011;553;51.038;7.216;2023-04-25T14:12:01;5.13;;;2.37;;
1128;SDS011;553;51.038;7.216;2023-04-25T14:14:28;7.70;;;3.13;;
1128;SDS011;553;51.038;7.216;2023-04-25T14:16:55;9.17;;;4.03;;
1128;SDS011;553;51.038;7.216;2023-04-25T14:19:23;9.10;;;2.90;;
1128;SDS011;553;51.038;7.216;2023-04-25T14:21:50;5.13;;;3.20;;
1128;SDS011;553;51.038;7.216;2023-04-25T14:24:17;6.10;;;2.97;;
1128;SDS011;553;51.038;7.216;2023-04-25T14:26:44;9.03;;;3.00;;
1128;SDS011;553;51.038;7.216;2023-04-25T14:29:11;6.30;;;3.77;;
1128;SDS011;553;51.038;7.216;2023-04-25T14:31:38;6.30;;;3.10;;
1128;SDS011;553;51.038;7.216;2023-04-25T14:34:07;6.67;;;3.37;;
1128;SDS011;553;51.038;7.216;2023-04-25T14:36:35;7.13;;;2.43;;
1128;SDS011;553;51.038;7.216;2023-04-25T14:39:02;9.93;;;3.47;;
1128;SDS011;553;51.038;7.216;2023-04-25T14:41:31;6.30;;;3.30;;
1128;SDS011;553;51.038;7.216;2023-04-25T14:43:58;4.93;;;2.40;;
1128;SDS011;553;51.038;7.216;2023-04-25T14:46:24;6.43;;;3.17;;
1128;SDS011;553;51.038;7.216;2023-04-25T14:48:52;5.57;;;2.20;;
1128;SDS011;553;51.038;7.216;2023-04-25T14:51:19;8.10;;;2.13;;
1128;SDS011;553;51.038;7.216;2023-04-25T14:53:46;3.70;;;2.33;;
1128;SDS011;553;51.038;7.216;2023-04-25T14:56:13;5.00;;;2.13;;
1128;SDS011;553;51.038;7.216;2023-04-25T14:58:40;7.30;;;4.00;;
1128;SDS011;553;51.038;7.216;2023-04-25T15:01:07;3.70;;;1.80;;
1128;SDS011;553;51.038;7.216;2023-04-25T15:03:34;3.00;;;1.37;;
1128;SDS011;553;51.038;7.216;2023-04-25T15:06:02;6.00;;;2.20;;
1128;SDS011;553;51.038;7.216;2023-04-25T15:08:28;4.07;;;2.43;;
1128;SDS011;553;51.038;7.216;2023-04-25T15:10:55;3.53;;;1.60;;
1128;SDS011;553;51.038;7.216;2023-04-25T15:13:22;3.80;;;1.50;;
1128;SDS011;553;51.038;7.216;2023-04-25T15:15:49;3.33;;;1.67;;
1128;SDS011;553;51.038;7.216;2023-04-25T15:18:18;5.83;;;1.73;;
1128;SDS011;553;51.038;7.216;2023-04-25T15:20:48;3.23;;;1.90;;
1128;SDS011;553;51.038;7.216;2023-04-25T15:23:19;5.03;;;2.03;;
1128;SDS011;553;51.038;7.216;2023-04-25T15:25:47;7.67;;;3.33;;
1128;SDS011;553;51.038;7.216;2023-04-25T15:28:16;4.17;;;1.80;;
1128;SDS011;553;51.038;7.216;2023-04-25T15:30:43;4.07;;;2.53;;
1128;SDS011;553;51.038;7.216;2023-04-25T15:33:11;5.00;;;1.60;;
1128;SDS011;553;51.038;7.216;2023-04-25T15:35:37;5.50;;;1.90;;
1128;SDS011;553;51.038;7.216;2023-04-25T15:38:04;3.43;;;2.20;;
1128;SDS011;553;51.038;7.216;2023-04-25T15:40:31;4.23;;;2.10;;
1128;SDS011;553;51.038;7.216;2023-04-25T15:42:58;3.33;;;1.70;;
1128;SDS011;553;51.038;7.216;2023-04-25T15:45:25;6.53;;;1.80;;
1128;SDS011;553;51.038;7.216;2023-04-25T15:47:54;6.00;;;2.10;;
1128;SDS011;553;51.038;7.216;2023-04-25T15:50:22;4.37;;;1.80;;
1128;SDS011;553;51.038;7.216;2023-04-25T15:52:49;4.03;;;2.10;;
1128;SDS011;553;51.038;7.216;2023-04-25T15:55:17;6.80;;;1.90;;
1128;SDS011;553;51.038;7.216;2023-04-25T15:57:46;6.70;;;2.33;;